createdAt,value
2023-04-13T00:01:45.762Z,97897.34
2023-04-13T00:04:19.257Z,97896.06
2023-04-13T00:06:52.571Z,97895.00
2023-04-13T00:09:27.380Z,97889.22
2023-04-13T00:12:01.653Z,97882.09
2023-04-13T00:14:34.379Z,97879.19
2023-04-13T00:17:07.198Z,97872.97
2023-04-13T00:19:41.476Z,97878.00
2023-04-13T00:22:14.362Z,97874.19
2023-04-13T00:24:48.011Z,97878.00
2023-04-13T00:27:22.339Z,97864.56
2023-04-13T00:29:56.318Z,97871.38
2023-04-13T00:32:29.280Z,97887.63
2023-04-13T00:35:02.116Z,97905.28
2023-04-13T00:37:35.752Z,97909.31
2023-04-13T00:40:10.966Z,97901.19
2023-04-13T00:42:46.223Z,97897.94
2023-04-13T00:45:19.421Z,97898.75
2023-04-13T00:47:54.356Z,97892.78
2023-04-13T00:50:27.281Z,97891.38
2023-04-13T00:53:00.323Z,97893.28
2023-04-13T00:55:33.213Z,97894.16
2023-04-13T00:58:07.943Z,97900.97
2023-04-13T01:00:43.182Z,97905.16
2023-04-13T01:03:16.422Z,97908.19
2023-04-13T01:05:57.478Z,97908.88
2023-04-13T01:08:38.769Z,97919.88
2023-04-13T01:11:15.617Z,97922.59
2023-04-13T01:13:56.057Z,97916.00
2023-04-13T01:16:35.466Z,97929.72
2023-04-13T01:19:16.514Z,97930.06
2023-04-13T01:21:54.754Z,97927.22
2023-04-13T01:24:41.927Z,97915.13
2023-04-13T01:27:20.399Z,97915.78
2023-04-13T01:29:56.892Z,97908.38
2023-04-13T01:32:30.874Z,97908.56
2023-04-13T01:35:04.028Z,97919.81
2023-04-13T01:37:37.037Z,97930.00
2023-04-13T01:40:12.840Z,97945.44
2023-04-13T01:42:52.419Z,97944.13
2023-04-13T01:45:30.044Z,97952.44
2023-04-13T01:48:11.678Z,97946.22
2023-04-13T01:50:59.823Z,97947.94
2023-04-13T01:53:45.313Z,97957.59
2023-04-13T01:56:23.208Z,97965.88
2023-04-13T01:59:02.446Z,97963.91
2023-04-13T02:01:38.577Z,97969.09
2023-04-13T02:04:11.532Z,97965.28
2023-04-13T02:06:48.270Z,97962.59
2023-04-13T02:09:21.025Z,97959.72
2023-04-13T02:11:58.621Z,97958.16
2023-04-13T02:14:32.046Z,97959.28
2023-04-13T02:17:06.261Z,97951.59
2023-04-13T02:19:39.220Z,97955.50
2023-04-13T02:22:12.797Z,97951.25
2023-04-13T02:24:46.630Z,97945.88
2023-04-13T02:27:19.400Z,97943.69
2023-04-13T02:29:52.835Z,97941.59
2023-04-13T02:32:28.027Z,97928.84
2023-04-13T02:35:02.411Z,97930.25
2023-04-13T02:37:39.444Z,97926.16
2023-04-13T02:40:14.448Z,97929.19
2023-04-13T02:42:48.367Z,97929.66
2023-04-13T02:45:22.742Z,97933.00
2023-04-13T02:47:57.174Z,97935.38
2023-04-13T02:50:30.541Z,97932.50
2023-04-13T02:53:08.907Z,97940.88
2023-04-13T02:55:43.247Z,97934.25
2023-04-13T02:58:20.231Z,97934.81
2023-04-13T03:00:58.163Z,97939.75
2023-04-13T03:03:33.453Z,97946.13
2023-04-13T03:06:06.965Z,97960.72
2023-04-13T03:08:48.924Z,97964.94
2023-04-13T03:11:25.184Z,97964.78
2023-04-13T03:14:22.277Z,97967.13
2023-04-13T03:17:03.602Z,97967.47
2023-04-13T03:19:47.335Z,97961.59
2023-04-13T03:22:21.289Z,97966.16
2023-04-13T03:24:57.032Z,97968.28
2023-04-13T03:27:37.488Z,97963.06
2023-04-13T03:30:11.857Z,97978.41
2023-04-13T03:32:55.230Z,97970.75
2023-04-13T03:35:32.580Z,97971.84
2023-04-13T03:38:08.461Z,97978.09
2023-04-13T03:40:48.943Z,97981.16
2023-04-13T03:43:21.774Z,97973.50
2023-04-13T03:46:04.686Z,97978.59
2023-04-13T03:48:38.761Z,97975.97
2023-04-13T03:51:16.279Z,97991.72
2023-04-13T03:53:57.325Z,97982.44
2023-04-13T03:56:32.850Z,97987.81
2023-04-13T03:59:05.878Z,97995.69
2023-04-13T04:01:38.837Z,97992.31
2023-04-13T04:04:11.907Z,98004.84
2023-04-13T04:06:46.406Z,97992.00
2023-04-13T04:09:22.996Z,98000.72
2023-04-13T04:11:56.604Z,97998.31
2023-04-13T04:14:41.369Z,97987.94
2023-04-13T04:17:22.029Z,97985.03
2023-04-13T04:19:55.685Z,97989.78
2023-04-13T04:22:35.186Z,97987.88
2023-04-13T04:25:10.405Z,97981.59
2023-04-13T04:27:47.020Z,97991.13
2023-04-13T04:30:22.103Z,97989.47
2023-04-13T04:32:55.210Z,98000.50
2023-04-13T04:35:43.752Z,97991.31
2023-04-13T04:38:18.314Z,97991.75
2023-04-13T04:40:57.636Z,97991.59
2023-04-13T04:43:32.354Z,98005.25
2023-04-13T04:46:07.724Z,98000.19
2023-04-13T04:48:47.660Z,97999.28
2023-04-13T04:51:25.232Z,98005.91
2023-04-13T04:54:02.540Z,98001.16
2023-04-13T04:56:35.892Z,98000.19
2023-04-13T04:59:10.266Z,98016.03
2023-04-13T05:01:52.321Z,98008.69
2023-04-13T05:04:25.846Z,98005.66
2023-04-13T05:06:59.285Z,98011.34
2023-04-13T05:09:35.143Z,98015.53
2023-04-13T05:12:08.264Z,98010.44
2023-04-13T05:14:43.927Z,98018.34
2023-04-13T05:17:19.348Z,98016.72
2023-04-13T05:19:52.890Z,98026.53
2023-04-13T05:22:29.912Z,98019.31
2023-04-13T05:25:10.897Z,98016.97
2023-04-13T05:27:44.610Z,98018.78
2023-04-13T05:30:18.627Z,98022.47
2023-04-13T05:32:51.969Z,98030.00
2023-04-13T05:35:28.033Z,98016.03
2023-04-13T05:38:01.915Z,98028.72
2023-04-13T05:40:41.305Z,98016.63
2023-04-13T05:43:15.368Z,98008.41
2023-04-13T05:45:53.620Z,98013.53
2023-04-13T05:48:27.963Z,98020.56
2023-04-13T05:51:06.051Z,98019.59
2023-04-13T05:53:40.804Z,98021.78
2023-04-13T05:56:15.047Z,98020.00
2023-04-13T05:58:48.936Z,98019.66
2023-04-13T06:01:26.328Z,98025.47
2023-04-13T06:04:00.824Z,98035.63
2023-04-13T06:06:34.160Z,98036.75
2023-04-13T06:09:08.750Z,98038.75
2023-04-13T06:11:43.285Z,98041.44
2023-04-13T06:14:16.646Z,98043.34
2023-04-13T06:16:49.546Z,98051.94
2023-04-13T06:19:22.516Z,98049.31
2023-04-13T06:21:55.530Z,98044.22
2023-04-13T06:24:29.163Z,98049.06
2023-04-13T06:27:04.677Z,98039.78
2023-04-13T06:29:38.798Z,98042.72
2023-04-13T06:32:15.341Z,98044.66
2023-04-13T06:34:48.983Z,98054.34
2023-04-13T06:37:22.365Z,98054.19
2023-04-13T06:39:58.068Z,98058.22
2023-04-13T06:42:32.503Z,98065.16
2023-04-13T06:45:25.629Z,98054.25
2023-04-13T06:48:00.525Z,98054.44
2023-04-13T06:50:36.432Z,98055.09
2023-04-13T06:53:10.626Z,98054.88
2023-04-13T06:55:45.090Z,98055.94
2023-04-13T06:58:19.459Z,98054.38
2023-04-13T07:00:52.360Z,98056.16
2023-04-13T07:03:25.984Z,98065.06
2023-04-13T07:05:59.321Z,98061.84
2023-04-13T07:08:33.051Z,98062.53
2023-04-13T07:11:07.425Z,98075.38
2023-04-13T07:13:45.757Z,98061.63
2023-04-13T07:16:20.208Z,98059.44
2023-04-13T07:18:53.594Z,98065.00
2023-04-13T07:21:27.608Z,98065.56
2023-04-13T07:24:06.091Z,98058.97
2023-04-13T07:26:42.032Z,98068.44
2023-04-13T07:29:18.312Z,98065.88
2023-04-13T07:32:01.309Z,98074.03
2023-04-13T07:34:38.106Z,98077.13
2023-04-13T07:37:11.307Z,98077.13
2023-04-13T07:39:44.959Z,98071.78
2023-04-13T07:42:18.124Z,98072.25
2023-04-13T07:44:58.006Z,98076.16
2023-04-13T07:47:33.727Z,98089.72
2023-04-13T07:50:13.365Z,98090.16
2023-04-13T07:52:46.977Z,98092.94
2023-04-13T07:55:22.776Z,98094.97
2023-04-13T07:57:59.846Z,98099.19
2023-04-13T08:00:34.715Z,98100.75
2023-04-13T08:03:11.178Z,98108.63
2023-04-13T08:05:46.901Z,98104.38
2023-04-13T08:08:20.168Z,98109.09
2023-04-13T08:10:53.374Z,98096.44
2023-04-13T08:13:28.057Z,98106.97
2023-04-13T08:16:02.783Z,98110.56
2023-04-13T08:18:37.413Z,98103.22
2023-04-13T08:21:15.080Z,98110.47
2023-04-13T08:23:51.597Z,98109.56
2023-04-13T08:26:24.921Z,98121.06
2023-04-13T08:28:58.050Z,98114.38
2023-04-13T08:31:33.471Z,98120.03
2023-04-13T08:34:11.825Z,98116.25
2023-04-13T08:36:46.271Z,98117.16
2023-04-13T08:39:21.309Z,98116.25
2023-04-13T08:41:54.404Z,98121.81
2023-04-13T08:44:29.833Z,98120.13
2023-04-13T08:47:05.552Z,98125.19
2023-04-13T08:49:41.820Z,98121.38
2023-04-13T08:52:23.897Z,98125.41
2023-04-13T08:55:00.983Z,98130.19
2023-04-13T08:57:38.370Z,98129.16
2023-04-13T09:00:18.170Z,98133.97
2023-04-13T09:03:05.641Z,98126.06
2023-04-13T09:05:43.084Z,98134.97
2023-04-13T09:08:18.077Z,98127.28
2023-04-13T09:10:56.025Z,98128.94
2023-04-13T09:13:28.889Z,98127.41
2023-04-13T09:16:02.832Z,98128.19
2023-04-13T09:18:51.486Z,98134.66
2023-04-13T09:21:38.001Z,98129.31
2023-04-13T09:24:12.516Z,98138.09
2023-04-13T09:26:46.752Z,98130.06
2023-04-13T09:29:22.358Z,98140.09
2023-04-13T09:31:55.424Z,98142.06
2023-04-13T09:34:30.285Z,98143.97
2023-04-13T09:37:13.842Z,98132.66
2023-04-13T09:39:46.956Z,98140.78
2023-04-13T09:42:20.708Z,98141.56
2023-04-13T09:44:57.898Z,98145.25
2023-04-13T09:47:36.774Z,98143.22
2023-04-13T09:50:28.390Z,98140.41
2023-04-13T09:53:01.735Z,98147.66
2023-04-13T09:55:37.202Z,98142.13
2023-04-13T09:58:11.353Z,98150.75
2023-04-13T10:00:46.565Z,98149.06
2023-04-13T10:03:22.769Z,98137.94
2023-04-13T10:06:01.259Z,98137.06
2023-04-13T10:08:38.664Z,98143.13
2023-04-13T10:11:15.253Z,98142.31
2023-04-13T10:13:53.317Z,98141.47
2023-04-13T10:16:44.305Z,98146.44
2023-04-13T10:19:21.105Z,98139.44
2023-04-13T10:21:56.661Z,98142.41
2023-04-13T10:24:30.074Z,98144.69
2023-04-13T10:27:12.748Z,98143.78
2023-04-13T10:29:46.529Z,98137.19
2023-04-13T10:32:24.246Z,98139.38
2023-04-13T10:34:57.104Z,98135.69
2023-04-13T10:37:31.451Z,98127.97
2023-04-13T10:40:08.071Z,98128.88
2023-04-13T10:42:51.922Z,98138.13
2023-04-13T10:45:32.387Z,98122.56
2023-04-13T10:48:06.499Z,98134.00
2023-04-13T10:50:39.814Z,98143.06
2023-04-13T10:53:14.383Z,98132.84
2023-04-13T10:55:47.265Z,98133.22
2023-04-13T10:58:20.374Z,98139.63
2023-04-13T11:00:54.787Z,98131.56
2023-04-13T11:03:29.662Z,98128.59
2023-04-13T11:06:03.527Z,98110.56
2023-04-13T11:08:39.760Z,98128.59
2023-04-13T11:11:15.155Z,98120.09
2023-04-13T11:13:48.424Z,98141.13
2023-04-13T11:16:21.345Z,98123.72
2023-04-13T11:19:02.354Z,98122.75
2023-04-13T11:21:36.682Z,98108.75
2023-04-13T11:24:11.167Z,98125.16
2023-04-13T11:26:44.064Z,98129.72
2023-04-13T11:29:19.070Z,98129.09
2023-04-13T11:31:52.562Z,98126.66
2023-04-13T11:34:30.068Z,98123.38
2023-04-13T11:37:05.821Z,98115.47
2023-04-13T11:39:44.139Z,98111.91
2023-04-13T11:42:17.046Z,98115.66
2023-04-13T11:44:49.859Z,98123.84
2023-04-13T11:47:23.883Z,98116.88
2023-04-13T11:49:57.164Z,98114.25
2023-04-13T11:52:30.646Z,98110.81
2023-04-13T11:55:18.953Z,98111.28
2023-04-13T11:57:56.299Z,98124.34
2023-04-13T12:00:29.887Z,98112.47
2023-04-13T12:03:12.023Z,98108.16
2023-04-13T12:06:01.636Z,98096.75
2023-04-13T12:08:36.845Z,98105.63
2023-04-13T12:14:05.964Z,98103.88
2023-04-13T12:19:23.585Z,98107.22
2023-04-13T12:21:57.786Z,98129.13
2023-04-13T12:24:33.879Z,98119.00
2023-04-13T12:29:44.471Z,98129.06
2023-04-13T12:32:18.171Z,98122.19
2023-04-13T12:34:51.151Z,98122.41
2023-04-13T12:37:23.940Z,98137.13
2023-04-13T12:39:57.499Z,98119.66
2023-04-13T12:42:31.635Z,98117.94
2023-04-13T12:45:05.134Z,98131.41
2023-04-13T12:47:38.247Z,98126.63
2023-04-13T12:50:13.011Z,98120.13
2023-04-13T12:52:46.043Z,98117.94
2023-04-13T12:55:18.949Z,98109.41
2023-04-13T12:57:53.072Z,98112.84
2023-04-13T13:00:26.262Z,98114.22
2023-04-13T13:03:10.410Z,98109.72
2023-04-13T13:05:46.216Z,98116.03
2023-04-13T13:08:19.008Z,98133.66
2023-04-13T13:10:51.856Z,98130.88
2023-04-13T13:13:25.979Z,98136.00
2023-04-13T13:15:59.114Z,98128.84
2023-04-13T13:18:46.692Z,98131.53
2023-04-13T13:21:23.264Z,98131.03
2023-04-13T13:23:56.440Z,98120.94
2023-04-13T13:26:36.665Z,98118.59
2023-04-13T13:29:24.131Z,98122.19
2023-04-13T13:31:57.046Z,98111.41
2023-04-13T13:34:30.012Z,98109.19
2023-04-13T13:37:03.417Z,98113.13
2023-04-13T13:39:37.026Z,98111.72
2023-04-13T13:42:09.917Z,98110.75
2023-04-13T13:44:44.238Z,98116.53
2023-04-13T13:47:17.438Z,98110.38
2023-04-13T13:49:54.840Z,98114.22
2023-04-13T13:52:37.392Z,98112.91
2023-04-13T13:55:12.826Z,98114.13
2023-04-13T13:57:45.870Z,98117.91
2023-04-13T14:00:21.384Z,98121.53
2023-04-13T14:02:54.665Z,98123.41
2023-04-13T14:05:28.156Z,98125.91
2023-04-13T14:08:00.912Z,98126.97
2023-04-13T14:10:34.630Z,98124.34
2023-04-13T14:13:07.653Z,98130.25
2023-04-13T14:15:42.095Z,98137.38
2023-04-13T14:18:14.943Z,98132.47
2023-04-13T14:20:47.846Z,98132.91
2023-04-13T14:23:21.126Z,98125.13
2023-04-13T14:25:54.015Z,98128.06
2023-04-13T14:28:27.388Z,98120.28
2023-04-13T14:31:01.558Z,98134.78
2023-04-13T14:33:34.414Z,98135.25
2023-04-13T14:36:08.949Z,98149.38
2023-04-13T14:38:42.217Z,98144.09
2023-04-13T14:41:14.995Z,98146.38
2023-04-13T14:43:47.802Z,98149.03
2023-04-13T14:46:22.367Z,98141.94
2023-04-13T14:48:55.665Z,98147.63
2023-04-13T14:51:29.132Z,98161.88
2023-04-13T14:54:02.169Z,98150.81
2023-04-13T14:56:35.017Z,98143.81
2023-04-13T14:59:07.735Z,98151.94
2023-04-13T15:01:42.356Z,98144.19
2023-04-13T15:04:17.133Z,98150.69
2023-04-13T15:06:53.149Z,98141.03
2023-04-13T15:09:25.933Z,98138.81
2023-04-13T15:11:58.741Z,98138.34
2023-04-13T15:14:32.104Z,98144.09
2023-04-13T15:17:08.176Z,98150.13
2023-04-13T15:19:41.344Z,98152.81
2023-04-13T15:22:14.265Z,98159.81
2023-04-13T15:24:47.261Z,98151.59
2023-04-13T15:27:20.370Z,98157.97
2023-04-13T15:29:59.058Z,98146.84
2023-04-13T15:32:35.168Z,98155.31
2023-04-13T15:35:08.549Z,98152.81
2023-04-13T15:37:41.355Z,98151.59
2023-04-13T15:40:14.382Z,98142.69
2023-04-13T15:42:47.194Z,98138.84
2023-04-13T15:45:20.966Z,98133.09
2023-04-13T15:47:55.626Z,98139.91
2023-04-13T15:50:28.413Z,98145.34
2023-04-13T15:53:01.779Z,98154.47
2023-04-13T15:55:37.327Z,98153.22
2023-04-13T15:58:10.193Z,98147.06
2023-04-13T16:00:43.008Z,98136.34
2023-04-13T16:03:17.425Z,98142.72
2023-04-13T16:05:50.623Z,98144.56
2023-04-13T16:08:23.682Z,98140.69
2023-04-13T16:10:56.567Z,98143.97
2023-04-13T16:13:47.327Z,98139.56
2023-04-13T16:16:23.819Z,98143.72
2023-04-13T16:18:58.826Z,98144.28
2023-04-13T16:21:31.823Z,98139.06
2023-04-13T16:24:04.792Z,98147.91
2023-04-13T16:26:38.179Z,98152.53
2023-04-13T16:29:11.386Z,98156.50
2023-04-13T16:31:47.608Z,98155.28
2023-04-13T16:34:26.286Z,98173.38
2023-04-13T16:36:59.712Z,98178.66
2023-04-13T16:39:32.770Z,98180.47
2023-04-13T16:42:05.967Z,98195.25
2023-04-13T16:44:39.086Z,98199.97
2023-04-13T16:47:12.616Z,98190.34
2023-04-13T16:49:47.373Z,98189.25
2023-04-13T16:52:20.249Z,98196.94
2023-04-13T16:54:54.461Z,98205.19
2023-04-13T16:57:27.906Z,98206.78
2023-04-13T17:00:01.489Z,98206.91
2023-04-13T17:02:34.914Z,98203.63
2023-04-13T17:05:11.738Z,98213.44
2023-04-13T17:07:47.599Z,98218.38
2023-04-13T17:10:20.940Z,98225.63
2023-04-13T17:12:54.576Z,98230.88
2023-04-13T17:15:27.743Z,98232.78
2023-04-13T17:18:00.704Z,98238.53
2023-04-13T17:20:36.329Z,98249.25
2023-04-13T17:23:09.208Z,98252.22
2023-04-13T17:25:42.245Z,98255.25
2023-04-13T17:28:15.351Z,98263.03
2023-04-13T17:30:48.873Z,98269.50
2023-04-13T17:33:24.204Z,98279.97
2023-04-13T17:35:58.505Z,98286.03
2023-04-13T17:38:31.453Z,98292.78
2023-04-13T17:41:04.235Z,98302.88
2023-04-13T17:43:37.307Z,98298.56
2023-04-13T17:46:10.167Z,98308.22
2023-04-13T17:48:43.524Z,98304.28
2023-04-13T17:51:17.659Z,98303.34
2023-04-13T17:53:50.488Z,98313.63
2023-04-13T17:56:23.386Z,98313.00
2023-04-13T17:58:56.242Z,98319.91
2023-04-13T18:01:29.072Z,98323.69
2023-04-13T18:04:02.529Z,98318.47
2023-04-13T18:06:36.850Z,98327.13
2023-04-13T18:09:12.860Z,98327.16
2023-04-13T18:11:46.248Z,98332.69
2023-04-13T18:14:19.256Z,98327.28
2023-04-13T18:16:52.050Z,98335.34
2023-04-13T18:19:24.896Z,98337.94
2023-04-13T18:21:59.292Z,98331.78
2023-04-13T18:24:32.052Z,98330.22
2023-04-13T18:27:05.009Z,98331.50
2023-04-13T18:29:37.810Z,98337.34
2023-04-13T18:32:10.525Z,98338.84
2023-04-13T18:34:44.174Z,98338.25
2023-04-13T18:37:18.438Z,98338.84
2023-04-13T18:39:52.011Z,98343.69
2023-04-13T18:42:24.785Z,98339.16
2023-04-13T18:44:57.606Z,98342.19
2023-04-13T18:47:30.656Z,98335.16
2023-04-13T18:50:03.584Z,98340.06
2023-04-13T18:52:38.059Z,98338.00
2023-04-13T18:55:11.090Z,98339.13
2023-04-13T18:57:43.904Z,98332.72
2023-04-13T19:00:17.398Z,98326.03
2023-04-13T19:02:52.419Z,98326.59
2023-04-13T19:05:26.542Z,98331.44
2023-04-13T19:08:01.136Z,98328.31
2023-04-13T19:10:35.184Z,98339.53
2023-04-13T19:13:08.055Z,98334.94
2023-04-13T19:15:40.822Z,98332.16
2023-04-13T19:18:13.617Z,98323.63
2023-04-13T19:20:46.395Z,98335.00
2023-04-13T19:23:20.753Z,98333.78
2023-04-13T19:25:53.515Z,98328.53
2023-04-13T19:28:27.979Z,98324.31
2023-04-13T19:31:00.824Z,98321.19
2023-04-13T19:33:35.445Z,98319.59
2023-04-13T19:36:08.396Z,98318.25
2023-04-13T19:38:44.947Z,98327.63
2023-04-13T19:41:18.282Z,98320.50
2023-04-13T19:43:52.313Z,98327.78
2023-04-13T19:46:25.351Z,98323.19
2023-04-13T19:48:59.074Z,98325.72
2023-04-13T19:51:33.409Z,98327.19
2023-04-13T19:54:08.065Z,98335.53
2023-04-13T19:56:40.931Z,98335.56
2023-04-13T19:59:13.680Z,98339.13
2023-04-13T20:01:47.313Z,98339.00
2023-04-13T20:04:20.277Z,98345.34
2023-04-13T20:06:53.272Z,98343.50
2023-04-13T20:09:28.072Z,98342.28
2023-04-13T20:12:00.980Z,98337.38
2023-04-13T20:14:34.996Z,98334.16
2023-04-13T20:17:08.067Z,98325.19
2023-04-13T20:19:40.883Z,98316.50
2023-04-13T20:22:14.356Z,98315.69
2023-04-13T20:24:48.596Z,98320.91
2023-04-13T20:27:22.664Z,98326.41
2023-04-13T20:29:55.679Z,98335.22
2023-04-13T20:32:29.161Z,98336.22
2023-04-13T20:35:02.834Z,98333.91
2023-04-13T20:37:35.592Z,98334.22
2023-04-13T20:40:11.728Z,98344.81
2023-04-13T20:42:45.333Z,98340.91
2023-04-13T20:45:20.665Z,98339.84
2023-04-13T20:47:56.255Z,98338.44
2023-04-13T20:50:29.362Z,98343.94
2023-04-13T20:53:02.201Z,98339.59
2023-04-13T20:55:36.494Z,98338.84
2023-04-13T20:58:10.789Z,98337.25
2023-04-13T21:00:44.052Z,98338.69
2023-04-13T21:03:17.385Z,98339.59
2023-04-13T21:05:50.589Z,98338.56
2023-04-13T21:08:24.457Z,98334.47
2023-04-13T21:10:58.542Z,98336.69
2023-04-13T21:13:31.814Z,98327.88
2023-04-13T21:16:05.227Z,98330.47
2023-04-13T21:18:38.087Z,98320.34
2023-04-13T21:21:11.322Z,98320.47
2023-04-13T21:23:44.287Z,98315.38
2023-04-13T21:26:18.413Z,98317.75
2023-04-13T21:28:51.340Z,98315.66
2023-04-13T21:31:24.208Z,98311.31
2023-04-13T21:33:59.280Z,98305.34
2023-04-13T21:39:08.746Z,98298.94
2023-04-13T21:41:42.941Z,98291.50
2023-04-13T21:44:28.813Z,98289.56
2023-04-13T21:47:02.413Z,98286.00
2023-04-13T21:49:35.302Z,98277.69
2023-04-13T21:52:08.104Z,98281.22
2023-04-13T21:54:41.172Z,98294.34
2023-04-13T21:57:15.550Z,98308.69
2023-04-13T21:59:48.349Z,98316.00
2023-04-13T22:02:21.491Z,98328.88
2023-04-13T22:04:54.531Z,98330.28
2023-04-13T22:07:39.314Z,98333.88
2023-04-13T22:10:15.151Z,98339.25
2023-04-13T22:12:49.288Z,98342.38
2023-04-13T22:15:23.291Z,98335.59
2023-04-13T22:17:56.375Z,98344.63
2023-04-13T22:20:29.186Z,98340.28
2023-04-13T22:23:02.241Z,98332.09
2023-04-13T22:25:35.349Z,98342.13
2023-04-13T22:28:10.620Z,98346.72
2023-04-13T22:30:44.666Z,98345.09
2023-04-13T22:33:17.490Z,98353.41
2023-04-13T22:35:51.716Z,98348.56
2023-04-13T22:38:24.611Z,98348.06
2023-04-13T22:40:57.488Z,98350.25
2023-04-13T22:43:31.740Z,98356.53
2023-04-13T22:46:04.698Z,98354.47
2023-04-13T22:48:37.775Z,98354.59
2023-04-13T22:51:11.209Z,98343.31
2023-04-13T22:53:44.070Z,98342.13
2023-04-13T22:56:17.144Z,98344.38
2023-04-13T22:58:51.790Z,98352.38
2023-04-13T23:01:24.690Z,98342.47
2023-04-13T23:03:58.045Z,98341.28
2023-04-13T23:06:31.234Z,98341.63
2023-04-13T23:09:04.282Z,98342.97
2023-04-13T23:11:37.966Z,98336.53
2023-04-13T23:14:12.447Z,98330.47
2023-04-13T23:16:45.501Z,98319.38
2023-04-13T23:19:18.748Z,98317.28
2023-04-13T23:21:51.598Z,98317.13
2023-04-13T23:24:24.469Z,98316.03
2023-04-13T23:26:57.932Z,98309.66
2023-04-13T23:29:32.078Z,98308.72
2023-04-13T23:32:06.765Z,98304.69
2023-04-13T23:34:39.843Z,98313.38
2023-04-13T23:37:12.671Z,98318.19
2023-04-13T23:39:45.421Z,98322.00
2023-04-13T23:42:18.290Z,98323.75
2023-04-13T23:44:52.594Z,98326.97
2023-04-13T23:47:25.801Z,98333.22
2023-04-13T23:49:58.687Z,98329.06
2023-04-13T23:52:31.519Z,98339.88
2023-04-13T23:55:04.632Z,98331.94
2023-04-13T23:57:37.664Z,98336.81
